sensor_id;sensor_type;location;lat;lon;timestamp;P1;durP1;ratioP1;P2;durP2;ratioP2
69835;SDS011;57132;51.972;4.450;2022-11-21T00:00:43;505.55;;;462.23;;
69835;SDS011;57132;51.972;4.450;2022-11-21T00:03:10;495.88;;;452.95;;
69835;SDS011;57132;51.972;4.450;2022-11-21T00:05:40;530.42;;;482.58;;
69835;SDS011;57132;51.972;4.450;2022-11-21T00:08:07;515.17;;;469.63;;
69835;SDS011;57132;51.972;4.450;2022-11-21T00:10:32;512.97;;;465.98;;
69835;SDS011;57132;51.972;4.450;2022-11-21T00:12:58;575.83;;;523.00;;
69835;SDS011;57132;51.972;4.450;2022-11-21T00:15:24;541.10;;;492.10;;
69835;SDS011;57132;51.972;4.450;2022-11-21T00:17:50;534.88;;;484.83;;
69835;SDS011;57132;51.972;4.450;2022-11-21T00:20:17;540.63;;;490.58;;
69835;SDS011;57132;51.972;4.450;2022-11-21T00:22:44;497.85;;;452.20;;
69835;SDS011;57132;51.972;4.450;2022-11-21T00:25:10;496.65;;;450.50;;
69835;SDS011;57132;51.972;4.450;2022-11-21T00:27:36;540.35;;;489.48;;
69835;SDS011;57132;51.972;4.450;2022-11-21T00:30:01;529.15;;;480.23;;
69835;SDS011;57132;51.972;4.450;2022-11-21T00:32:27;515.00;;;467.25;;
69835;SDS011;57132;51.972;4.450;2022-11-21T00:34:53;580.75;;;524.40;;
69835;SDS011;57132;51.972;4.450;2022-11-21T00:37:18;540.63;;;491.50;;
69835;SDS011;57132;51.972;4.450;2022-11-21T00:39:44;540.33;;;488.85;;
69835;SDS011;57132;51.972;4.450;2022-11-21T00:42:09;553.15;;;501.42;;
69835;SDS011;57132;51.972;4.450;2022-11-21T00:44:34;531.35;;;479.73;;
69835;SDS011;57132;51.972;4.450;2022-11-21T00:47:00;543.22;;;490.73;;
69835;SDS011;57132;51.972;4.450;2022-11-21T00:49:25;534.08;;;480.85;;
69835;SDS011;57132;51.972;4.450;2022-11-21T00:51:50;543.47;;;487.80;;
69835;SDS011;57132;51.972;4.450;2022-11-21T00:54:16;547.38;;;493.08;;
69835;SDS011;57132;51.972;4.450;2022-11-21T00:56:41;554.30;;;498.40;;
69835;SDS011;57132;51.972;4.450;2022-11-21T00:59:07;587.20;;;528.15;;
69835;SDS011;57132;51.972;4.450;2022-11-21T01:01:32;575.28;;;516.92;;
69835;SDS011;57132;51.972;4.450;2022-11-21T01:03:57;566.42;;;510.05;;
69835;SDS011;57132;51.972;4.450;2022-11-21T01:06:23;574.42;;;516.63;;
69835;SDS011;57132;51.972;4.450;2022-11-21T01:08:49;588.65;;;527.60;;
69835;SDS011;57132;51.972;4.450;2022-11-21T01:11:15;539.20;;;482.75;;
69835;SDS011;57132;51.972;4.450;2022-11-21T01:13:42;546.72;;;490.00;;
69835;SDS011;57132;51.972;4.450;2022-11-21T01:16:11;524.50;;;470.02;;
69835;SDS011;57132;51.972;4.450;2022-11-21T01:18:38;522.80;;;468.98;;
69835;SDS011;57132;51.972;4.450;2022-11-21T01:21:05;508.30;;;454.90;;
69835;SDS011;57132;51.972;4.450;2022-11-21T01:23:36;491.48;;;438.10;;
69835;SDS011;57132;51.972;4.450;2022-11-21T01:26:05;477.73;;;426.83;;
69835;SDS011;57132;51.972;4.450;2022-11-21T01:28:33;462.55;;;413.25;;
69835;SDS011;57132;51.972;4.450;2022-11-21T01:31:32;514.50;;;459.33;;
69835;SDS011;57132;51.972;4.450;2022-11-21T01:33:52;366.85;;;327.98;;
69835;SDS011;57132;51.972;4.450;2022-11-21T01:36:25;484.50;;;433.75;;
69835;SDS011;57132;51.972;4.450;2022-11-21T01:38:53;472.17;;;423.30;;
69835;SDS011;57132;51.972;4.450;2022-11-21T01:41:22;486.35;;;435.15;;
69835;SDS011;57132;51.972;4.450;2022-11-21T01:43:49;453.52;;;405.65;;
69835;SDS011;57132;51.972;4.450;2022-11-21T01:46:16;456.73;;;407.88;;
69835;SDS011;57132;51.972;4.450;2022-11-21T01:53:57;365.65;;;326.42;;
69835;SDS011;57132;51.972;4.450;2022-11-21T01:56:27;438.38;;;392.02;;
69835;SDS011;57132;51.972;4.450;2022-11-21T01:58:58;382.27;;;341.20;;
69835;SDS011;57132;51.972;4.450;2022-11-21T02:01:27;407.23;;;363.40;;
69835;SDS011;57132;51.972;4.450;2022-11-21T02:03:53;416.50;;;371.58;;
69835;SDS011;57132;51.972;4.450;2022-11-21T02:06:21;453.85;;;403.95;;
69835;SDS011;57132;51.972;4.450;2022-11-21T02:08:48;454.25;;;407.25;;
69835;SDS011;57132;51.972;4.450;2022-11-21T02:11:37;512.28;;;457.98;;
69835;SDS011;57132;51.972;4.450;2022-11-21T02:14:05;362.83;;;324.63;;
69835;SDS011;57132;51.972;4.450;2022-11-21T02:16:31;448.30;;;401.00;;
69835;SDS011;57132;51.972;4.450;2022-11-21T02:18:58;440.67;;;393.65;;
69835;SDS011;57132;51.972;4.450;2022-11-21T02:26:39;393.52;;;352.95;;
69835;SDS011;57132;51.972;4.450;2022-11-21T02:29:05;430.80;;;385.88;;
69835;SDS011;57132;51.972;4.450;2022-11-21T02:31:31;455.58;;;408.90;;
69835;SDS011;57132;51.972;4.450;2022-11-21T02:33:56;504.30;;;451.27;;
69835;SDS011;57132;51.972;4.450;2022-11-21T02:36:38;479.58;;;429.33;;
69835;SDS011;57132;51.972;4.450;2022-11-21T02:39:08;382.95;;;341.48;;
69835;SDS011;57132;51.972;4.450;2022-11-21T02:41:39;429.45;;;382.52;;
69835;SDS011;57132;51.972;4.450;2022-11-21T02:44:28;408.13;;;363.95;;
69835;SDS011;57132;51.972;4.450;2022-11-21T02:47:03;396.05;;;352.58;;
69835;SDS011;57132;51.972;4.450;2022-11-21T02:49:36;450.83;;;401.75;;
69835;SDS011;57132;51.972;4.450;2022-11-21T02:52:06;392.70;;;350.20;;
69835;SDS011;57132;51.972;4.450;2022-11-21T02:54:32;437.35;;;390.83;;
69835;SDS011;57132;51.972;4.450;2022-11-21T02:56:57;457.13;;;408.35;;
69835;SDS011;57132;51.972;4.450;2022-11-21T02:59:22;466.98;;;417.10;;
69835;SDS011;57132;51.972;4.450;2022-11-21T03:01:48;480.63;;;429.42;;
69835;SDS011;57132;51.972;4.450;2022-11-21T03:04:13;477.98;;;426.75;;
69835;SDS011;57132;51.972;4.450;2022-11-21T03:06:38;453.33;;;407.42;;
69835;SDS011;57132;51.972;4.450;2022-11-21T03:09:03;502.90;;;448.00;;
69835;SDS011;57132;51.972;4.450;2022-11-21T03:11:29;448.95;;;402.58;;
69835;SDS011;57132;51.972;4.450;2022-11-21T03:13:54;480.83;;;429.27;;
69835;SDS011;57132;51.972;4.450;2022-11-21T03:16:19;440.98;;;394.45;;
69835;SDS011;57132;51.972;4.450;2022-11-21T03:18:45;476.83;;;420.05;;
69835;SDS011;57132;51.972;4.450;2022-11-21T03:21:10;399.80;;;357.48;;
69835;SDS011;57132;51.972;4.450;2022-11-21T03:23:35;393.52;;;352.80;;
69835;SDS011;57132;51.972;4.450;2022-11-21T03:26:01;431.80;;;386.80;;
69835;SDS011;57132;51.972;4.450;2022-11-21T03:28:26;388.40;;;349.15;;
69835;SDS011;57132;51.972;4.450;2022-11-21T03:30:51;441.88;;;395.40;;
69835;SDS011;57132;51.972;4.450;2022-11-21T03:33:17;407.30;;;367.23;;
69835;SDS011;57132;51.972;4.450;2022-11-21T03:35:42;434.58;;;390.20;;
69835;SDS011;57132;51.972;4.450;2022-11-21T03:38:07;447.48;;;401.75;;
69835;SDS011;57132;51.972;4.450;2022-11-21T03:40:33;376.77;;;338.67;;
69835;SDS011;57132;51.972;4.450;2022-11-21T03:43:02;379.88;;;341.77;;
69835;SDS011;57132;51.972;4.450;2022-11-21T03:45:31;408.77;;;367.55;;
69835;SDS011;57132;51.972;4.450;2022-11-21T03:47:57;402.88;;;361.75;;
69835;SDS011;57132;51.972;4.450;2022-11-21T03:50:22;389.13;;;350.38;;
69835;SDS011;57132;51.972;4.450;2022-11-21T03:52:48;431.20;;;381.23;;
69835;SDS011;57132;51.972;4.450;2022-11-21T03:55:13;424.20;;;379.63;;
69835;SDS011;57132;51.972;4.450;2022-11-21T03:57:39;436.83;;;389.05;;
69835;SDS011;57132;51.972;4.450;2022-11-21T04:00:04;428.70;;;382.67;;
69835;SDS011;57132;51.972;4.450;2022-11-21T04:02:30;403.65;;;361.05;;
69835;SDS011;57132;51.972;4.450;2022-11-21T04:04:56;451.25;;;397.33;;
69835;SDS011;57132;51.972;4.450;2022-11-21T04:07:21;440.83;;;395.10;;
69835;SDS011;57132;51.972;4.450;2022-11-21T04:09:47;447.80;;;400.08;;
69835;SDS011;57132;51.972;4.450;2022-11-21T04:12:12;374.00;;;334.05;;
69835;SDS011;57132;51.972;4.450;2022-11-21T04:14:37;372.58;;;333.95;;
69835;SDS011;57132;51.972;4.450;2022-11-21T04:17:02;427.42;;;379.73;;
69835;SDS011;57132;51.972;4.450;2022-11-21T04:19:28;315.38;;;282.02;;
69835;SDS011;57132;51.972;4.450;2022-11-21T04:21:53;398.92;;;358.02;;
69835;SDS011;57132;51.972;4.450;2022-11-21T04:24:19;398.70;;;358.17;;
69835;SDS011;57132;51.972;4.450;2022-11-21T04:26:44;407.42;;;365.70;;
69835;SDS011;57132;51.972;4.450;2022-11-21T04:29:09;417.00;;;372.20;;
69835;SDS011;57132;51.972;4.450;2022-11-21T04:31:35;427.25;;;383.58;;
69835;SDS011;57132;51.972;4.450;2022-11-21T04:34:00;388.48;;;350.02;;
69835;SDS011;57132;51.972;4.450;2022-11-21T04:36:26;447.70;;;401.30;;
69835;SDS011;57132;51.972;4.450;2022-11-21T04:38:51;407.75;;;366.30;;
69835;SDS011;57132;51.972;4.450;2022-11-21T04:41:17;394.67;;;355.40;;
69835;SDS011;57132;51.972;4.450;2022-11-21T04:43:42;442.40;;;398.48;;
69835;SDS011;57132;51.972;4.450;2022-11-21T04:46:07;441.55;;;395.40;;
69835;SDS011;57132;51.972;4.450;2022-11-21T04:48:32;411.75;;;369.75;;
69835;SDS011;57132;51.972;4.450;2022-11-21T04:50:58;472.98;;;426.17;;
69835;SDS011;57132;51.972;4.450;2022-11-21T04:53:23;489.38;;;440.38;;
69835;SDS011;57132;51.972;4.450;2022-11-21T04:55:49;447.48;;;402.83;;
69835;SDS011;57132;51.972;4.450;2022-11-21T04:58:14;496.77;;;446.65;;
69835;SDS011;57132;51.972;4.450;2022-11-21T05:00:39;427.67;;;384.45;;
69835;SDS011;57132;51.972;4.450;2022-11-21T05:03:05;447.80;;;401.95;;
69835;SDS011;57132;51.972;4.450;2022-11-21T05:05:31;447.58;;;402.10;;
69835;SDS011;57132;51.972;4.450;2022-11-21T05:07:57;470.38;;;423.92;;
69835;SDS011;57132;51.972;4.450;2022-11-21T05:10:23;461.23;;;414.27;;
69835;SDS011;57132;51.972;4.450;2022-11-21T05:12:55;502.70;;;452.50;;
69835;SDS011;57132;51.972;4.450;2022-11-21T05:15:40;426.23;;;384.30;;
69835;SDS011;57132;51.972;4.450;2022-11-21T05:18:06;443.20;;;399.38;;
69835;SDS011;57132;51.972;4.450;2022-11-21T05:20:31;450.60;;;406.50;;
69835;SDS011;57132;51.972;4.450;2022-11-21T05:22:56;485.13;;;436.17;;
69835;SDS011;57132;51.972;4.450;2022-11-21T05:25:22;491.08;;;442.75;;
69835;SDS011;57132;51.972;4.450;2022-11-21T05:27:47;493.58;;;446.77;;
69835;SDS011;57132;51.972;4.450;2022-11-21T05:30:12;514.88;;;465.23;;
69835;SDS011;57132;51.972;4.450;2022-11-21T05:32:38;524.35;;;472.98;;
69835;SDS011;57132;51.972;4.450;2022-11-21T05:35:03;520.65;;;470.70;;
69835;SDS011;57132;51.972;4.450;2022-11-21T05:37:29;559.53;;;506.75;;
69835;SDS011;57132;51.972;4.450;2022-11-21T05:39:54;547.17;;;496.00;;
69835;SDS011;57132;51.972;4.450;2022-11-21T05:42:20;556.72;;;502.60;;
69835;SDS011;57132;51.972;4.450;2022-11-21T05:45:05;455.73;;;412.70;;
69835;SDS011;57132;51.972;4.450;2022-11-21T05:47:31;540.60;;;492.80;;
69835;SDS011;57132;51.972;4.450;2022-11-21T05:49:56;562.95;;;512.22;;
69835;SDS011;57132;51.972;4.450;2022-11-21T05:52:22;526.95;;;478.10;;
69835;SDS011;57132;51.972;4.450;2022-11-21T05:54:47;562.92;;;510.85;;
69835;SDS011;57132;51.972;4.450;2022-11-21T05:57:13;563.05;;;508.98;;
69835;SDS011;57132;51.972;4.450;2022-11-21T05:59:38;570.42;;;519.10;;
69835;SDS011;57132;51.972;4.450;2022-11-21T06:02:03;583.40;;;529.03;;
69835;SDS011;57132;51.972;4.450;2022-11-21T06:04:47;593.75;;;542.53;;
69835;SDS011;57132;51.972;4.450;2022-11-21T06:07:13;517.28;;;471.63;;
69835;SDS011;57132;51.972;4.450;2022-11-21T06:09:38;601.78;;;548.53;;
69835;SDS011;57132;51.972;4.450;2022-11-21T06:12:03;603.25;;;552.05;;
69835;SDS011;57132;51.972;4.450;2022-11-21T06:14:29;612.63;;;561.10;;
69835;SDS011;57132;51.972;4.450;2022-11-21T06:16:54;605.72;;;554.63;;
69835;SDS011;57132;51.972;4.450;2022-11-21T06:19:19;604.72;;;555.97;;
69835;SDS011;57132;51.972;4.450;2022-11-21T06:21:45;645.38;;;590.85;;
69835;SDS011;57132;51.972;4.450;2022-11-21T06:24:10;647.00;;;593.50;;
69835;SDS011;57132;51.972;4.450;2022-11-21T06:26:36;661.28;;;606.38;;
69835;SDS011;57132;51.972;4.450;2022-11-21T06:29:01;659.55;;;605.65;;
69835;SDS011;57132;51.972;4.450;2022-11-21T06:31:27;712.90;;;655.33;;
69835;SDS011;57132;51.972;4.450;2022-11-21T06:33:53;733.05;;;673.25;;
69835;SDS011;57132;51.972;4.450;2022-11-21T06:36:19;695.97;;;638.10;;
69835;SDS011;57132;51.972;4.450;2022-11-21T06:38:45;713.63;;;654.65;;
69835;SDS011;57132;51.972;4.450;2022-11-21T06:41:12;723.80;;;663.60;;
69835;SDS011;57132;51.972;4.450;2022-11-21T06:43:38;719.70;;;659.53;;
69835;SDS011;57132;51.972;4.450;2022-11-21T06:46:04;693.42;;;635.83;;
69835;SDS011;57132;51.972;4.450;2022-11-21T06:48:31;756.50;;;683.72;;
69835;SDS011;57132;51.972;4.450;2022-11-21T06:50:57;730.42;;;670.83;;
69835;SDS011;57132;51.972;4.450;2022-11-21T06:53:22;742.65;;;681.00;;
69835;SDS011;57132;51.972;4.450;2022-11-21T06:55:48;704.47;;;645.80;;
69835;SDS011;57132;51.972;4.450;2022-11-21T06:58:13;706.10;;;646.25;;
69835;SDS011;57132;51.972;4.450;2022-11-21T07:00:39;734.75;;;673.92;;
69835;SDS011;57132;51.972;4.450;2022-11-21T07:03:04;707.15;;;648.00;;
69835;SDS011;57132;51.972;4.450;2022-11-21T07:05:29;649.22;;;594.78;;
69835;SDS011;57132;51.972;4.450;2022-11-21T07:07:58;701.00;;;643.13;;
69835;SDS011;57132;51.972;4.450;2022-11-21T07:10:25;659.75;;;605.60;;
69835;SDS011;57132;51.972;4.450;2022-11-21T07:12:50;641.25;;;588.70;;
69835;SDS011;57132;51.972;4.450;2022-11-21T07:15:35;705.15;;;650.08;;
69835;SDS011;57132;51.972;4.450;2022-11-21T07:18:00;676.33;;;622.80;;
69835;SDS011;57132;51.972;4.450;2022-11-21T07:20:26;681.90;;;627.15;;
69835;SDS011;57132;51.972;4.450;2022-11-21T07:22:55;701.50;;;645.03;;
69835;SDS011;57132;51.972;4.450;2022-11-21T07:25:20;668.53;;;614.22;;
69835;SDS011;57132;51.972;4.450;2022-11-21T07:27:46;717.13;;;658.08;;
69835;SDS011;57132;51.972;4.450;2022-11-21T07:30:12;694.97;;;638.55;;
69835;SDS011;57132;51.972;4.450;2022-11-21T07:32:38;712.38;;;654.17;;
69835;SDS011;57132;51.972;4.450;2022-11-21T07:35:04;752.08;;;690.53;;
69835;SDS011;57132;51.972;4.450;2022-11-21T07:37:30;720.05;;;661.90;;
69835;SDS011;57132;51.972;4.450;2022-11-21T07:39:55;742.72;;;682.83;;
69835;SDS011;57132;51.972;4.450;2022-11-21T07:42:20;704.67;;;646.72;;
69835;SDS011;57132;51.972;4.450;2022-11-21T07:44:46;691.00;;;633.38;;
69835;SDS011;57132;51.972;4.450;2022-11-21T07:47:11;714.28;;;656.13;;
69835;SDS011;57132;51.972;4.450;2022-11-21T07:49:36;699.25;;;642.90;;
69835;SDS011;57132;51.972;4.450;2022-11-21T07:52:02;717.25;;;658.80;;
69835;SDS011;57132;51.972;4.450;2022-11-21T07:54:27;744.33;;;684.67;;
69835;SDS011;57132;51.972;4.450;2022-11-21T07:56:52;758.85;;;696.22;;
69835;SDS011;57132;51.972;4.450;2022-11-21T07:59:18;771.92;;;708.13;;
69835;SDS011;57132;51.972;4.450;2022-11-21T08:01:43;764.40;;;699.45;;
69835;SDS011;57132;51.972;4.450;2022-11-21T08:04:09;843.58;;;772.50;;
69835;SDS011;57132;51.972;4.450;2022-11-21T08:06:34;854.80;;;783.20;;
69835;SDS011;57132;51.972;4.450;2022-11-21T08:08:59;858.25;;;786.15;;
69835;SDS011;57132;51.972;4.450;2022-11-21T08:11:25;875.92;;;801.63;;
69835;SDS011;57132;51.972;4.450;2022-11-21T08:13:50;890.88;;;816.90;;
69835;SDS011;57132;51.972;4.450;2022-11-21T08:16:16;907.17;;;831.55;;
69835;SDS011;57132;51.972;4.450;2022-11-21T08:18:41;849.78;;;780.13;;
69835;SDS011;57132;51.972;4.450;2022-11-21T08:21:06;918.33;;;841.63;;
69835;SDS011;57132;51.972;4.450;2022-11-21T08:23:31;924.17;;;847.55;;
69835;SDS011;57132;51.972;4.450;2022-11-21T08:25:57;874.22;;;806.05;;
69835;SDS011;57132;51.972;4.450;2022-11-21T08:28:22;928.28;;;854.25;;
69835;SDS011;57132;51.972;4.450;2022-11-21T08:30:48;937.90;;;865.50;;
69835;SDS011;57132;51.972;4.450;2022-11-21T08:33:13;898.65;;;828.03;;
69835;SDS011;57132;51.972;4.450;2022-11-21T08:35:39;937.15;;;864.35;;
69835;SDS011;57132;51.972;4.450;2022-11-21T08:38:04;940.63;;;865.63;;
69835;SDS011;57132;51.972;4.450;2022-11-21T08:40:30;917.60;;;845.70;;
69835;SDS011;57132;51.972;4.450;2022-11-21T08:45:22;930.38;;;858.75;;
69835;SDS011;57132;51.972;4.450;2022-11-21T08:47:47;929.65;;;858.13;;
69835;SDS011;57132;51.972;4.450;2022-11-21T08:50:13;927.13;;;855.75;;
69835;SDS011;57132;51.972;4.450;2022-11-21T08:52:39;935.42;;;863.45;;
69835;SDS011;57132;51.972;4.450;2022-11-21T08:55:04;926.42;;;854.55;;
69835;SDS011;57132;51.972;4.450;2022-11-21T08:57:30;940.85;;;866.17;;
69835;SDS011;57132;51.972;4.450;2022-11-21T08:59:55;938.00;;;865.42;;
69835;SDS011;57132;51.972;4.450;2022-11-21T09:02:21;945.58;;;872.03;;
69835;SDS011;57132;51.972;4.450;2022-11-21T09:04:46;939.60;;;864.47;;
69835;SDS011;57132;51.972;4.450;2022-11-21T09:07:12;911.97;;;840.85;;
69835;SDS011;57132;51.972;4.450;2022-11-21T09:09:37;976.03;;;897.40;;
69835;SDS011;57132;51.972;4.450;2022-11-21T09:12:02;944.78;;;867.42;;
69835;SDS011;57132;51.972;4.450;2022-11-21T09:14:28;964.00;;;883.83;;
69835;SDS011;57132;51.972;4.450;2022-11-21T09:17:12;951.75;;;873.10;;
69835;SDS011;57132;51.972;4.450;2022-11-21T09:19:57;933.88;;;855.58;;
69835;SDS011;57132;51.972;4.450;2022-11-21T09:22:24;979.40;;;893.20;;
69835;SDS011;57132;51.972;4.450;2022-11-21T09:24:50;1008.60;;;918.33;;
69835;SDS011;57132;51.972;4.450;2022-11-21T09:27:16;1015.92;;;921.58;;
69835;SDS011;57132;51.972;4.450;2022-11-21T09:29:41;1049.28;;;942.22;;
69835;SDS011;57132;51.972;4.450;2022-11-21T09:32:06;1052.90;;;943.42;;
69835;SDS011;57132;51.972;4.450;2022-11-21T09:34:32;1056.90;;;947.20;;
69835;SDS011;57132;51.972;4.450;2022-11-21T09:36:57;1052.60;;;947.33;;
69835;SDS011;57132;51.972;4.450;2022-11-21T09:39:22;974.22;;;886.10;;
69835;SDS011;57132;51.972;4.450;2022-11-21T09:47:16;1999.90;;;999.90;;
69835;SDS011;57132;51.972;4.450;2022-11-21T09:49:46;1999.90;;;999.90;;
69835;SDS011;57132;51.972;4.450;2022-11-21T09:52:16;1999.90;;;999.90;;
69835;SDS011;57132;51.972;4.450;2022-11-21T09:54:52;1999.90;;;999.90;;
69835;SDS011;57132;51.972;4.450;2022-11-21T09:57:22;1999.90;;;999.90;;
69835;SDS011;57132;51.972;4.450;2022-11-21T09:59:50;1999.90;;;999.90;;
69835;SDS011;57132;51.972;4.450;2022-11-21T10:02:17;1999.90;;;999.90;;
69835;SDS011;57132;51.972;4.450;2022-11-21T10:04:47;1999.90;;;999.90;;
69835;SDS011;57132;51.972;4.450;2022-11-21T10:07:24;1999.90;;;999.90;;
69835;SDS011;57132;51.972;4.450;2022-11-21T10:10:16;1999.90;;;999.90;;
69835;SDS011;57132;51.972;4.450;2022-11-21T10:24:27;1999.90;;;999.90;;
69835;SDS011;57132;51.972;4.450;2022-11-21T10:26:53;1999.90;;;999.90;;
69835;SDS011;57132;51.972;4.450;2022-11-21T10:29:38;1999.90;;;999.90;;
69835;SDS011;57132;51.972;4.450;2022-11-21T10:34:43;1999.90;;;999.90;;
69835;SDS011;57132;51.972;4.450;2022-11-21T10:37:13;1999.90;;;999.90;;
69835;SDS011;57132;51.972;4.450;2022-11-21T10:39:44;1999.90;;;999.90;;
69835;SDS011;57132;51.972;4.450;2022-11-21T10:45:12;1999.90;;;999.90;;
69835;SDS011;57132;51.972;4.450;2022-11-21T10:47:41;1999.90;;;999.90;;
69835;SDS011;57132;51.972;4.450;2022-11-21T10:52:46;1999.90;;;999.90;;
69835;SDS011;57132;51.972;4.450;2022-11-21T10:55:14;1999.90;;;999.90;;
69835;SDS011;57132;51.972;4.450;2022-11-21T10:57:49;1639.72;;;879.45;;
69835;SDS011;57132;51.972;4.450;2022-11-21T11:05:36;498.75;;;460.88;;
69835;SDS011;57132;51.972;4.450;2022-11-21T11:08:12;774.22;;;712.88;;
69835;SDS011;57132;51.972;4.450;2022-11-21T11:10:42;632.10;;;582.53;;
69835;SDS011;57132;51.972;4.450;2022-11-21T11:13:13;775.80;;;716.75;;
69835;SDS011;57132;51.972;4.450;2022-11-21T11:18:28;1999.90;;;999.90;;
69835;SDS011;57132;51.972;4.450;2022-11-21T11:21:08;1999.90;;;999.90;;
69835;SDS011;57132;51.972;4.450;2022-11-21T11:23:37;1999.90;;;999.90;;
69835;SDS011;57132;51.972;4.450;2022-11-21T11:26:16;1999.90;;;999.90;;
69835;SDS011;57132;51.972;4.450;2022-11-21T11:31:58;1999.90;;;999.90;;
69835;SDS011;57132;51.972;4.450;2022-11-21T11:34:40;1999.90;;;999.90;;
69835;SDS011;57132;51.972;4.450;2022-11-21T11:40:05;1999.90;;;999.90;;
69835;SDS011;57132;51.972;4.450;2022-11-21T11:42:39;1999.90;;;999.90;;
69835;SDS011;57132;51.972;4.450;2022-11-21T11:48:46;1999.90;;;999.90;;
69835;SDS011;57132;51.972;4.450;2022-11-21T11:53:52;1999.90;;;999.90;;
69835;SDS011;57132;51.972;4.450;2022-11-21T11:56:22;1999.90;;;999.90;;
69835;SDS011;57132;51.972;4.450;2022-11-21T12:01:20;1999.90;;;999.90;;
69835;SDS011;57132;51.972;4.450;2022-11-21T12:03:59;1999.90;;;999.90;;
69835;SDS011;57132;51.972;4.450;2022-11-21T12:23:30;1999.90;;;999.90;;
69835;SDS011;57132;51.972;4.450;2022-11-21T12:54:07;1999.90;;;999.90;;
69835;SDS011;57132;51.972;4.450;2022-11-21T12:57:13;595.03;;;547.15;;
69835;SDS011;57132;51.972;4.450;2022-11-21T13:05:25;669.17;;;614.70;;
69835;SDS011;57132;51.972;4.450;2022-11-21T13:07:54;619.55;;;568.05;;
69835;SDS011;57132;51.972;4.450;2022-11-21T13:10:29;645.90;;;592.30;;
69835;SDS011;57132;51.972;4.450;2022-11-21T13:16:07;740.50;;;680.95;;
69835;SDS011;57132;51.972;4.450;2022-11-21T13:18:41;757.85;;;696.58;;
69835;SDS011;57132;51.972;4.450;2022-11-21T13:24:05;690.40;;;633.17;;
69835;SDS011;57132;51.972;4.450;2022-11-21T13:29:10;581.40;;;531.92;;
69835;SDS011;57132;51.972;4.450;2022-11-21T13:31:36;676.53;;;619.53;;
69835;SDS011;57132;51.972;4.450;2022-11-21T13:34:04;762.28;;;700.05;;
69835;SDS011;57132;51.972;4.450;2022-11-21T13:41:57;612.20;;;560.00;;
69835;SDS011;57132;51.972;4.450;2022-11-21T13:47:00;1647.40;;;884.58;;
69835;SDS011;57132;51.972;4.450;2022-11-21T14:00:14;544.33;;;496.45;;
69835;SDS011;57132;51.972;4.450;2022-11-21T14:02:59;434.63;;;395.92;;
69835;SDS011;57132;51.972;4.450;2022-11-21T14:08:34;575.78;;;526.58;;
69835;SDS011;57132;51.972;4.450;2022-11-21T14:11:01;669.83;;;612.83;;
69835;SDS011;57132;51.972;4.450;2022-11-21T14:13:45;895.55;;;609.53;;
69835;SDS011;57132;51.972;4.450;2022-11-21T14:21:23;1999.90;;;999.90;;
69835;SDS011;57132;51.972;4.450;2022-11-21T14:23:55;408.48;;;370.25;;
69835;SDS011;57132;51.972;4.450;2022-11-21T14:26:22;625.13;;;570.25;;
69835;SDS011;57132;51.972;4.450;2022-11-21T14:28:49;698.83;;;635.47;;
69835;SDS011;57132;51.972;4.450;2022-11-21T14:31:15;798.50;;;730.53;;
69835;SDS011;57132;51.972;4.450;2022-11-21T14:33:41;846.80;;;773.78;;
69835;SDS011;57132;51.972;4.450;2022-11-21T14:36:12;794.10;;;724.13;;
69835;SDS011;57132;51.972;4.450;2022-11-21T14:38:47;820.42;;;751.08;;
69835;SDS011;57132;51.972;4.450;2022-11-21T14:41:21;826.63;;;757.15;;
69835;SDS011;57132;51.972;4.450;2022-11-21T14:43:47;887.95;;;812.20;;
69835;SDS011;57132;51.972;4.450;2022-11-21T14:46:13;850.42;;;774.95;;
69835;SDS011;57132;51.972;4.450;2022-11-21T14:48:44;870.92;;;798.08;;
69835;SDS011;57132;51.972;4.450;2022-11-21T14:51:10;933.63;;;855.60;;
69835;SDS011;57132;51.972;4.450;2022-11-21T14:53:40;919.38;;;841.40;;
69835;SDS011;57132;51.972;4.450;2022-11-21T14:56:23;927.72;;;850.67;;
69835;SDS011;57132;51.972;4.450;2022-11-21T14:58:51;899.87;;;825.20;;
69835;SDS011;57132;51.972;4.450;2022-11-21T15:01:21;890.30;;;809.78;;
69835;SDS011;57132;51.972;4.450;2022-11-21T15:03:59;941.63;;;860.97;;
69835;SDS011;57132;51.972;4.450;2022-11-21T15:06:26;935.85;;;854.97;;
69835;SDS011;57132;51.972;4.450;2022-11-21T15:08:54;957.78;;;874.97;;
69835;SDS011;57132;51.972;4.450;2022-11-21T15:11:23;967.00;;;883.08;;
69835;SDS011;57132;51.972;4.450;2022-11-21T15:14:00;959.47;;;875.67;;
69835;SDS011;57132;51.972;4.450;2022-11-21T15:16:28;920.85;;;842.20;;
69835;SDS011;57132;51.972;4.450;2022-11-21T15:18:54;971.70;;;886.78;;
69835;SDS011;57132;51.972;4.450;2022-11-21T15:21:20;944.15;;;859.65;;
69835;SDS011;57132;51.972;4.450;2022-11-21T15:23:46;976.83;;;892.50;;
69835;SDS011;57132;51.972;4.450;2022-11-21T15:26:28;981.80;;;894.58;;
69835;SDS011;57132;51.972;4.450;2022-11-21T15:28:55;919.43;;;839.63;;
69835;SDS011;57132;51.972;4.450;2022-11-21T15:31:23;964.00;;;877.50;;
69835;SDS011;57132;51.972;4.450;2022-11-21T15:33:52;950.13;;;864.72;;
69835;SDS011;57132;51.972;4.450;2022-11-21T15:36:25;973.58;;;887.63;;
69835;SDS011;57132;51.972;4.450;2022-11-21T15:38:55;986.25;;;898.30;;
69835;SDS011;57132;51.972;4.450;2022-11-21T15:41:29;977.05;;;891.08;;
69835;SDS011;57132;51.972;4.450;2022-11-21T15:49:03;1000.13;;;909.63;;
69835;SDS011;57132;51.972;4.450;2022-11-21T15:51:34;964.38;;;874.53;;
69835;SDS011;57132;51.972;4.450;2022-11-21T15:54:09;1014.97;;;920.15;;
69835;SDS011;57132;51.972;4.450;2022-11-21T15:56:36;996.38;;;906.25;;
69835;SDS011;57132;51.972;4.450;2022-11-21T15:59:02;1007.35;;;914.28;;
69835;SDS011;57132;51.972;4.450;2022-11-21T16:01:28;1003.75;;;909.63;;
69835;SDS011;57132;51.972;4.450;2022-11-21T16:03:57;988.85;;;896.33;;
69835;SDS011;57132;51.972;4.450;2022-11-21T16:06:25;997.72;;;904.75;;
69835;SDS011;57132;51.972;4.450;2022-11-21T16:08:50;1004.20;;;908.50;;
69835;SDS011;57132;51.972;4.450;2022-11-21T16:11:31;974.50;;;880.53;;
69835;SDS011;57132;51.972;4.450;2022-11-21T16:13:59;1000.58;;;905.55;;
69835;SDS011;57132;51.972;4.450;2022-11-21T16:16:27;969.70;;;873.45;;
69835;SDS011;57132;51.972;4.450;2022-11-21T16:18:54;1011.80;;;910.20;;
69835;SDS011;57132;51.972;4.450;2022-11-21T16:21:20;1035.78;;;923.78;;
69835;SDS011;57132;51.972;4.450;2022-11-21T16:23:46;995.00;;;891.92;;
69835;SDS011;57132;51.972;4.450;2022-11-21T16:26:12;1014.20;;;907.53;;
69835;SDS011;57132;51.972;4.450;2022-11-21T16:28:37;1036.80;;;929.80;;
69835;SDS011;57132;51.972;4.450;2022-11-21T16:31:03;1001.05;;;897.40;;